createdAt,value
2023-05-15T00:01:09.671Z,14.75
2023-05-15T00:03:41.046Z,14.69
2023-05-15T00:06:11.481Z,14.44
2023-05-15T00:08:47.571Z,14.60
2023-05-15T00:11:17.877Z,14.55
2023-05-15T00:13:48.205Z,14.63
2023-05-15T00:16:18.639Z,14.76
2023-05-15T00:18:48.994Z,14.85
2023-05-15T00:21:19.282Z,14.88
2023-05-15T00:23:54.183Z,14.65
2023-05-15T00:26:27.413Z,14.57
2023-05-15T00:29:00.140Z,14.74
2023-05-15T00:31:30.448Z,14.65
2023-05-15T00:34:01.084Z,14.74
2023-05-15T00:36:31.511Z,14.58
2023-05-15T00:39:04.358Z,14.68
2023-05-15T00:41:36.561Z,14.63
2023-05-15T00:44:08.176Z,14.71
2023-05-15T00:46:42.509Z,14.76
2023-05-15T00:49:13.964Z,14.79
2023-05-15T00:51:44.331Z,14.72
2023-05-15T00:54:17.258Z,14.60
2023-05-15T00:56:48.981Z,14.68
2023-05-15T00:59:20.426Z,14.72
2023-05-15T01:01:50.670Z,14.59
2023-05-15T01:04:20.879Z,14.53
2023-05-15T01:06:53.717Z,14.31
2023-05-15T01:09:28.190Z,14.60
2023-05-15T01:12:02.338Z,14.33
2023-05-15T01:14:32.264Z,14.60
2023-05-15T01:17:04.877Z,14.56
2023-05-15T01:19:36.019Z,14.67
2023-05-15T01:22:43.205Z,14.45
2023-05-15T01:25:57.109Z,14.57
2023-05-15T01:28:35.134Z,14.62
2023-05-15T01:31:13.613Z,14.66
2023-05-15T01:33:48.885Z,14.66
2023-05-15T01:36:27.660Z,14.54
2023-05-15T01:39:01.076Z,14.69
2023-05-15T01:41:35.634Z,14.37
2023-05-15T01:44:11.613Z,14.24
2023-05-15T01:46:45.796Z,14.51
2023-05-15T01:49:19.175Z,14.36
2023-05-15T01:51:54.027Z,14.43
2023-05-15T01:54:25.927Z,14.51
2023-05-15T01:56:57.421Z,14.53
2023-05-15T01:59:32.061Z,14.54
2023-05-15T02:02:03.831Z,14.59
2023-05-15T02:04:37.782Z,14.46
2023-05-15T02:07:09.724Z,14.36
2023-05-15T02:09:40.378Z,14.44
2023-05-15T02:12:13.317Z,14.50
2023-05-15T02:14:46.814Z,14.52
2023-05-15T02:17:17.030Z,14.60
2023-05-15T02:19:47.270Z,14.60
2023-05-15T02:22:17.814Z,14.36
2023-05-15T02:24:48.378Z,14.57
2023-05-15T02:27:24.116Z,14.62
2023-05-15T02:30:20.966Z,14.58
2023-05-15T02:32:59.264Z,14.56
2023-05-15T02:35:36.214Z,14.47
2023-05-15T02:38:12.196Z,14.44
2023-05-15T02:40:46.061Z,14.55
2023-05-15T02:43:20.941Z,14.61
2023-05-15T02:45:57.575Z,14.63
2023-05-15T02:48:29.208Z,14.53
2023-05-15T02:51:00.214Z,14.58
2023-05-15T02:53:33.830Z,14.57
2023-05-15T02:56:05.500Z,14.50
2023-05-15T02:58:39.158Z,14.52
2023-05-15T03:01:12.873Z,14.57
2023-05-15T03:03:43.112Z,14.64
2023-05-15T03:06:15.502Z,14.65
2023-05-15T03:08:48.079Z,14.71
2023-05-15T03:11:19.537Z,14.73
2023-05-15T03:13:49.779Z,14.66
2023-05-15T03:16:22.711Z,14.51
2023-05-15T03:18:55.325Z,14.59
2023-05-15T03:21:25.647Z,14.62
2023-05-15T03:23:56.474Z,14.68
2023-05-15T03:26:27.186Z,14.68
2023-05-15T03:29:01.104Z,14.77
2023-05-15T03:31:33.650Z,14.70
2023-05-15T03:34:07.050Z,14.75
2023-05-15T03:36:37.276Z,14.78
2023-05-15T03:39:07.927Z,14.77
2023-05-15T03:41:38.116Z,14.75
2023-05-15T03:44:08.847Z,14.77
2023-05-15T03:46:41.722Z,14.78
2023-05-15T03:49:12.003Z,14.80
2023-05-15T03:51:42.289Z,14.80
2023-05-15T03:54:12.569Z,14.80
2023-05-15T03:56:45.515Z,14.80
2023-05-15T03:59:15.724Z,14.69
2023-05-15T04:02:03.410Z,14.73
2023-05-15T04:04:34.791Z,14.76
2023-05-15T04:07:05.582Z,14.67
2023-05-15T04:09:35.843Z,14.69
2023-05-15T04:12:06.246Z,14.68
2023-05-15T04:14:36.488Z,14.68
2023-05-15T04:17:09.358Z,14.60
2023-05-15T04:19:41.179Z,14.55
2023-05-15T04:22:13.319Z,14.63
2023-05-15T04:24:43.620Z,14.67
2023-05-15T04:27:13.866Z,14.70
2023-05-15T04:29:44.129Z,14.66
2023-05-15T04:32:17.132Z,14.68
2023-05-15T04:34:47.490Z,14.71
2023-05-15T04:37:21.398Z,14.73
2023-05-15T04:39:51.480Z,14.64
2023-05-15T04:42:21.779Z,14.62
2023-05-15T04:44:52.252Z,14.62
2023-05-15T04:47:25.104Z,14.66
2023-05-15T04:49:57.705Z,14.72
2023-05-15T04:52:27.903Z,14.77
2023-05-15T04:54:58.285Z,14.69
2023-05-15T04:57:28.560Z,14.60
2023-05-15T04:59:58.881Z,14.64
2023-05-15T05:02:31.702Z,14.73
2023-05-15T05:05:04.274Z,14.57
2023-05-15T05:07:34.546Z,14.64
2023-05-15T05:10:05.688Z,14.45
2023-05-15T05:12:36.289Z,14.60
2023-05-15T05:15:07.024Z,14.58
2023-05-15T05:17:39.906Z,14.60
2023-05-15T05:20:13.452Z,14.55
2023-05-15T05:22:43.805Z,14.57
2023-05-15T05:25:14.110Z,14.62
2023-05-15T05:27:44.312Z,14.64
2023-05-15T05:30:27.289Z,14.63
2023-05-15T05:33:00.125Z,14.67
2023-05-15T05:35:30.966Z,14.65
2023-05-15T05:38:01.331Z,14.64
2023-05-15T05:40:31.631Z,14.68
2023-05-15T05:43:03.308Z,14.67
2023-05-15T05:45:33.728Z,14.67
2023-05-15T05:48:06.910Z,14.81
2023-05-15T05:50:37.124Z,14.91
2023-05-15T05:53:07.386Z,14.92
2023-05-15T05:55:37.854Z,14.91
2023-05-15T05:58:14.646Z,14.89
2023-05-15T06:00:48.742Z,15.00
2023-05-15T06:03:24.521Z,15.03
2023-05-15T06:05:54.782Z,15.07
2023-05-15T06:08:25.047Z,15.17
2023-05-15T06:10:56.559Z,15.17
2023-05-15T06:13:27.102Z,15.12
2023-05-15T06:15:57.407Z,14.98
2023-05-15T06:18:36.035Z,15.00
2023-05-15T06:21:06.610Z,15.06
2023-05-15T06:23:39.988Z,15.15
2023-05-15T06:26:10.268Z,15.06
2023-05-15T06:28:40.544Z,15.11
2023-05-15T06:31:10.972Z,15.15
2023-05-15T06:33:43.869Z,15.19
2023-05-15T06:36:14.117Z,15.19
2023-05-15T06:38:44.403Z,15.21
2023-05-15T06:41:14.699Z,15.17
2023-05-15T06:43:44.885Z,15.09
2023-05-15T06:46:16.504Z,15.18
2023-05-15T06:48:49.837Z,15.17
2023-05-15T06:51:20.265Z,15.17
2023-05-15T06:53:50.757Z,15.16
2023-05-15T06:56:20.931Z,15.19
2023-05-15T06:58:51.405Z,15.27
2023-05-15T07:01:24.635Z,15.21
2023-05-15T07:03:57.538Z,15.29
2023-05-15T07:06:28.556Z,15.18
2023-05-15T07:08:58.851Z,15.27
2023-05-15T07:11:29.568Z,15.34
2023-05-15T07:13:59.818Z,15.38
2023-05-15T07:16:30.093Z,15.41
2023-05-15T07:19:03.771Z,15.44
2023-05-15T07:21:34.051Z,15.46
2023-05-15T07:24:04.309Z,15.40
2023-05-15T07:26:43.451Z,15.34
2023-05-15T07:29:20.968Z,15.24
2023-05-15T07:31:51.230Z,15.15
2023-05-15T07:34:24.266Z,15.28
2023-05-15T07:36:54.530Z,15.39
2023-05-15T07:39:25.017Z,15.45
2023-05-15T07:41:55.357Z,15.55
2023-05-15T07:44:25.636Z,15.62
2023-05-15T07:46:55.939Z,15.63
2023-05-15T07:49:28.774Z,15.73
2023-05-15T07:51:59.060Z,15.75
2023-05-15T07:54:31.916Z,15.80
2023-05-15T07:57:02.388Z,15.83
2023-05-15T07:59:32.785Z,15.97
2023-05-15T08:02:03.184Z,16.01
2023-05-15T08:04:36.189Z,15.95
2023-05-15T08:07:10.478Z,16.02
2023-05-15T08:09:40.655Z,15.99
2023-05-15T08:12:23.711Z,16.10
2023-05-15T08:14:54.958Z,16.09
2023-05-15T08:17:25.671Z,16.15
2023-05-15T08:19:58.923Z,16.19
2023-05-15T08:22:32.022Z,16.29
2023-05-15T08:25:04.125Z,16.24
2023-05-15T08:27:34.392Z,16.32
2023-05-15T08:30:04.758Z,16.39
2023-05-15T08:32:34.997Z,16.21
2023-05-15T08:35:08.727Z,16.28
2023-05-15T08:37:39.091Z,16.31
2023-05-15T08:40:10.944Z,16.38
2023-05-15T08:42:47.387Z,16.41
2023-05-15T08:45:20.333Z,16.40
2023-05-15T08:47:50.979Z,16.43
2023-05-15T08:50:25.984Z,16.52
2023-05-15T08:53:00.442Z,16.50
2023-05-15T08:55:31.842Z,16.27
2023-05-15T08:58:02.891Z,16.45
2023-05-15T09:00:33.796Z,16.56
2023-05-15T09:03:06.845Z,16.66
2023-05-15T09:05:42.902Z,16.91
2023-05-15T09:08:13.553Z,17.14
2023-05-15T09:10:43.927Z,17.22
2023-05-15T09:13:16.124Z,17.15
2023-05-15T09:15:46.363Z,17.19
2023-05-15T09:18:18.959Z,17.20
2023-05-15T09:20:53.099Z,17.28
2023-05-15T09:23:28.410Z,17.23
2023-05-15T09:26:00.282Z,17.31
2023-05-15T09:28:32.303Z,17.33
2023-05-15T09:31:05.237Z,17.27
2023-05-15T09:33:37.092Z,17.39
2023-05-15T09:36:11.519Z,17.37
2023-05-15T09:38:48.491Z,17.43
2023-05-15T09:41:28.633Z,17.45
2023-05-15T09:43:59.368Z,17.38
2023-05-15T09:46:29.735Z,17.31
2023-05-15T09:49:00.164Z,17.27
2023-05-15T09:51:37.216Z,17.27
2023-05-15T09:54:07.893Z,17.20
2023-05-15T09:56:40.437Z,17.21
2023-05-15T09:59:17.548Z,17.32
2023-05-15T10:01:49.234Z,17.39
2023-05-15T10:04:21.356Z,17.41
2023-05-15T10:06:54.304Z,17.59
2023-05-15T10:09:33.012Z,17.61
2023-05-15T10:12:03.305Z,17.66
2023-05-15T10:14:33.986Z,17.68
2023-05-15T10:17:04.325Z,17.77
2023-05-15T10:19:35.926Z,17.83
2023-05-15T10:22:14.319Z,17.85
2023-05-15T10:24:47.536Z,17.78
2023-05-15T10:27:18.722Z,17.69
2023-05-15T10:29:53.109Z,17.55
2023-05-15T10:32:24.287Z,17.48
2023-05-15T10:34:55.247Z,17.50
2023-05-15T10:37:32.635Z,17.58
2023-05-15T10:40:04.851Z,17.61
2023-05-15T10:42:37.733Z,17.66
2023-05-15T10:45:10.567Z,17.78
2023-05-15T10:47:42.755Z,17.83
2023-05-15T10:50:15.392Z,17.92
2023-05-15T10:52:48.341Z,18.01
2023-05-15T10:55:25.062Z,17.85
2023-05-15T10:57:55.387Z,17.97
2023-05-15T11:00:31.555Z,18.05
2023-05-15T11:03:02.597Z,18.08
2023-05-15T11:05:32.893Z,18.06
2023-05-15T11:08:30.029Z,18.17
2023-05-15T11:11:00.368Z,18.22
2023-05-15T11:13:30.705Z,18.21
2023-05-15T11:16:01.050Z,18.16
2023-05-15T11:18:31.282Z,18.11
2023-05-15T11:21:11.618Z,18.19
2023-05-15T11:23:44.905Z,18.27
2023-05-15T11:26:16.794Z,18.34
2023-05-15T11:28:47.574Z,18.32
2023-05-15T11:31:17.879Z,18.29
2023-05-15T11:33:53.609Z,18.19
2023-05-15T11:36:27.787Z,18.13
2023-05-15T11:39:00.717Z,18.13
2023-05-15T11:41:37.718Z,18.10
2023-05-15T11:44:08.149Z,18.11
2023-05-15T11:46:38.564Z,18.18
2023-05-15T11:49:09.391Z,18.24
2023-05-15T11:51:43.400Z,18.34
2023-05-15T11:54:18.173Z,18.46
2023-05-15T11:56:49.799Z,18.58
2023-05-15T11:59:20.064Z,18.82
2023-05-15T12:01:50.356Z,18.96
2023-05-15T12:04:21.364Z,19.16
2023-05-15T12:06:51.960Z,19.37
2023-05-15T12:09:27.683Z,19.55
2023-05-15T12:11:58.830Z,19.80
2023-05-15T12:14:32.066Z,19.92
2023-05-15T12:17:04.935Z,20.13
2023-05-15T12:19:40.106Z,20.19
2023-05-15T12:22:10.955Z,20.20
2023-05-15T12:24:45.731Z,20.32
2023-05-15T12:27:16.895Z,20.28
2023-05-15T12:29:47.634Z,20.40
2023-05-15T12:32:20.917Z,20.43
2023-05-15T12:34:54.881Z,20.70
2023-05-15T12:37:24.875Z,20.91
2023-05-15T12:40:00.209Z,20.93
2023-05-15T12:42:31.121Z,21.27
2023-05-15T12:45:01.354Z,21.50
2023-05-15T12:47:31.655Z,21.47
2023-05-15T12:50:02.056Z,21.34
2023-05-15T12:52:32.340Z,21.23
2023-05-15T12:55:09.002Z,21.32
2023-05-15T12:57:48.284Z,21.27
2023-05-15T13:00:28.483Z,21.38
2023-05-15T13:03:00.112Z,21.49
2023-05-15T13:05:31.330Z,20.99
2023-05-15T13:08:03.378Z,20.93
2023-05-15T13:10:40.583Z,20.87
2023-05-15T13:13:12.178Z,20.75
2023-05-15T13:15:45.345Z,20.65
2023-05-15T13:18:17.355Z,20.66
2023-05-15T13:20:51.644Z,20.75
2023-05-15T13:23:24.282Z,20.94
2023-05-15T13:25:57.080Z,20.97
2023-05-15T13:28:27.394Z,21.00
2023-05-15T13:30:57.802Z,21.05
2023-05-15T13:33:29.218Z,21.03
2023-05-15T13:36:00.203Z,21.03
2023-05-15T13:38:30.814Z,20.83
2023-05-15T13:41:04.050Z,20.62
2023-05-15T13:43:34.347Z,20.55
2023-05-15T13:46:04.923Z,20.63
2023-05-15T13:48:48.935Z,20.82
2023-05-15T13:51:21.902Z,20.99
2023-05-15T13:53:55.276Z,20.92
2023-05-15T13:56:28.157Z,21.01
2023-05-15T13:58:58.602Z,21.03
2023-05-15T14:01:29.181Z,21.03
2023-05-15T14:03:59.595Z,21.20
2023-05-15T14:06:35.955Z,21.15
2023-05-15T14:09:07.616Z,21.23
2023-05-15T14:11:43.340Z,21.14
2023-05-15T14:14:13.696Z,21.19
2023-05-15T14:16:44.031Z,21.26
2023-05-15T14:19:14.347Z,21.12
2023-05-15T14:21:44.695Z,21.05
2023-05-15T14:24:14.900Z,21.04
2023-05-15T14:26:48.110Z,20.99
2023-05-15T14:29:18.347Z,21.05
2023-05-15T14:31:51.634Z,20.82
2023-05-15T14:34:22.802Z,20.95
2023-05-15T14:36:53.236Z,21.02
2023-05-15T14:39:23.491Z,21.13
2023-05-15T14:41:56.401Z,21.02
2023-05-15T14:44:26.641Z,21.18
2023-05-15T14:47:09.568Z,21.09
2023-05-15T14:49:40.386Z,21.11
2023-05-15T14:52:12.256Z,21.01
2023-05-15T14:54:51.200Z,20.92
2023-05-15T14:57:30.614Z,20.97
2023-05-15T15:00:00.827Z,20.98
2023-05-15T15:02:31.047Z,20.92
2023-05-15T15:05:01.388Z,20.92
2023-05-15T15:10:12.589Z,20.56
